Time;durP1;ratioP1;P1;durP2;ratioP2;P2;SDS_P1;SDS_P2;PMS_P1;PMS_P2;Temp;Humidity;BMP_temperature;BMP_pressure;BME280_temperature;BME280_humidity;BME280_pressure;Samples;Min_cycle;Max_cycle;Signal;HPM_P1;HPM_P2
2024/03/20 00:02:00;;;;;;;69.15;65.60;;;;;;;;;;5116876;28;20106;-55
2024/03/20 00:04:25;;;;;;;64.15;60.80;;;;;;;;;;5113750;28;20061;-56
2024/03/20 00:06:51;;;;;;;66.65;63.13;;;;;;;;;;5114184;28;20485;-54
2024/03/20 00:09:19;;;;;;;67.03;62.65;;;;;;;;;;5113521;28;20073;-56
2024/03/20 00:11:44;;;;;;;68.30;64.60;;;;;;;;;;5111519;28;20050;-54
2024/03/20 00:14:10;;;;;;;66.65;63.20;;;;;;;;;;5111747;28;20604;-55
2024/03/20 00:16:35;;;;;;;65.30;62.00;;;;;;;;;;5112217;28;20623;-55
2024/03/20 00:19:01;;;;;;;65.40;61.53;;;;;;;;;;5114077;28;20043;-55
2024/03/20 00:21:26;;;;;;;65.30;61.97;;;;;;;;;;5095457;28;20027;-55
2024/03/20 00:23:52;;;;;;;64.15;60.85;;;;;;;;;;5113752;28;20330;-52
2024/03/20 00:26:17;;;;;;;69.78;66.22;;;;;;;;;;5113814;28;20070;-54
2024/03/20 00:28:43;;;;;;;65.45;61.95;;;;;;;;;;5111835;28;20077;-51
2024/03/20 00:31:08;;;;;;;65.65;62.13;;;;;;;;;;5113581;28;20069;-53
2024/03/20 00:33:34;;;;;;;63.10;59.88;;;;;;;;;;5109188;28;20038;-53
2024/03/20 00:35:59;;;;;;;65.80;62.42;;;;;;;;;;5092893;28;20038;-53
2024/03/20 00:38:24;;;;;;;62.20;58.90;;;;;;;;;;5112386;28;20096;-50
2024/03/20 00:40:50;;;;;;;66.15;62.75;;;;;;;;;;5110976;27;20575;-55
2024/03/20 00:43:16;;;;;;;63.17;59.58;;;;;;;;;;5115562;27;20035;-52
2024/03/20 00:45:41;;;;;;;66.47;63.10;;;;;;;;;;5119043;27;21310;-55
2024/03/20 00:48:07;;;;;;;65.90;62.40;;;;;;;;;;5114352;27;20116;-56
2024/03/20 00:50:33;;;;;;;65.40;61.70;;;;;;;;;;5115112;27;20067;-54
2024/03/20 00:52:58;;;;;;;70.07;65.97;;;;;;;;;;5115090;27;20895;-54
2024/03/20 00:55:24;;;;;;;68.07;64.55;;;;;;;;;;5116263;27;20035;-55
2024/03/20 00:57:49;;;;;;;66.18;62.55;;;;;;;;;;5115567;27;20084;-55
2024/03/20 01:00:17;;;;;;;69.32;65.78;;;;;;;;;;5116876;27;20496;-55
2024/03/20 01:02:43;;;;;;;67.45;63.78;;;;;;;;;;5113475;27;20074;-54
2024/03/20 01:05:10;;;;;;;70.03;66.28;;;;;;;;;;5115003;27;20039;-53
2024/03/20 01:07:36;;;;;;;64.10;60.75;;;;;;;;;;5116718;27;20472;-55
2024/03/20 01:10:03;;;;;;;70.47;66.88;;;;;;;;;;5117580;27;20223;-54
2024/03/20 01:12:28;;;;;;;72.40;68.60;;;;;;;;;;5097598;27;20062;-53
2024/03/20 01:14:53;;;;;;;75.72;71.93;;;;;;;;;;5115943;27;20059;-55
2024/03/20 01:17:20;;;;;;;71.65;68.03;;;;;;;;;;5115730;27;20878;-55
2024/03/20 01:19:46;;;;;;;66.13;62.67;;;;;;;;;;5119889;27;20074;-55
2024/03/20 01:22:12;;;;;;;71.82;67.43;;;;;;;;;;5117543;27;20031;-58
2024/03/20 01:24:37;;;;;;;71.53;67.90;;;;;;;;;;5117407;27;20050;-57
2024/03/20 01:27:03;;;;;;;74.15;70.07;;;;;;;;;;5118154;27;20502;-58
2024/03/20 01:29:28;;;;;;;75.63;71.80;;;;;;;;;;5114216;27;20457;-58
2024/03/20 01:31:54;;;;;;;79.40;74.53;;;;;;;;;;5115689;27;20107;-57
2024/03/20 01:34:19;;;;;;;75.00;71.07;;;;;;;;;;5113849;27;20050;-58
2024/03/20 01:36:44;;;;;;;70.15;66.40;;;;;;;;;;5098421;27;20023;-57
2024/03/20 01:39:10;;;;;;;77.80;73.78;;;;;;;;;;5114874;27;20066;-58
2024/03/20 01:41:36;;;;;;;71.85;68.05;;;;;;;;;;5113535;27;20051;-57
2024/03/20 01:44:02;;;;;;;69.75;66.20;;;;;;;;;;5114649;27;20031;-58
2024/03/20 01:46:32;;;;;;;73.07;69.30;;;;;;;;;;5116149;27;20035;-57
2024/03/20 01:49:03;;;;;;;76.43;72.53;;;;;;;;;;5114218;27;20031;-56
2024/03/20 01:51:30;;;;;;;63.70;60.28;;;;;;;;;;5116099;27;20050;-55
2024/03/20 01:54:02;;;;;;;69.32;65.82;;;;;;;;;;5114511;27;20031;-55
2024/03/20 01:56:28;;;;;;;70.43;66.75;;;;;;;;;;5112315;27;20465;-56
2024/03/20 01:58:54;;;;;;;70.93;67.10;;;;;;;;;;5115258;27;20039;-56
2024/03/20 02:01:21;;;;;;;65.07;61.58;;;;;;;;;;5112613;27;20066;-54
2024/03/20 02:03:46;;;;;;;66.75;63.30;;;;;;;;;;5095577;27;20035;-55
2024/03/20 02:06:23;;;;;;;67.22;63.78;;;;;;;;;;5116562;27;20039;-55
2024/03/20 02:08:53;;;;;;;69.53;65.78;;;;;;;;;;5116169;27;20031;-53
2024/03/20 02:11:24;;;;;;;67.32;63.70;;;;;;;;;;5111379;27;20103;-54
2024/03/20 02:13:56;;;;;;;;;;;;;;;;;;5114507;27;20084;-55
2024/03/20 02:16:22;;;;;;;54.75;51.83;;;;;;;;;;5114646;27;19961;-55
2024/03/20 02:18:49;;;;;;;54.75;51.95;;;;;;;;;;5114729;27;20542;-52
2024/03/20 02:21:16;;;;;;;59.97;56.80;;;;;;;;;;5113160;27;20847;-55
2024/03/20 02:23:41;;;;;;;62.63;59.33;;;;;;;;;;5112097;27;20059;-54
2024/03/20 02:26:08;;;;;;;57.63;54.65;;;;;;;;;;5116314;27;20500;-55
2024/03/20 02:28:38;;;;;;;61.40;58.20;;;;;;;;;;5115046;27;20035;-55
2024/03/20 02:31:10;;;;;;;59.90;56.42;;;;;;;;;;5111437;27;20031;-55
2024/03/20 02:33:37;;;;;;;64.65;61.38;;;;;;;;;;5114755;27;20042;-54
2024/03/20 02:36:03;;;;;;;61.85;58.63;;;;;;;;;;5116208;27;20051;-54
2024/03/20 02:38:34;;;;;;;64.43;60.83;;;;;;;;;;5115506;27;20067;-55
2024/03/20 02:41:00;;;;;;;62.30;58.80;;;;;;;;;;5113748;27;20357;-55
2024/03/20 02:43:26;;;;;;;58.13;55.17;;;;;;;;;;5114284;27;20111;-56
2024/03/20 02:45:51;;;;;;;59.85;56.72;;;;;;;;;;5116326;27;20044;-56
2024/03/20 02:48:17;;;;;;;65.95;62.50;;;;;;;;;;5112578;27;20050;-54
2024/03/20 02:50:43;;;;;;;56.35;53.35;;;;;;;;;;5095921;27;20035;-54
2024/03/20 02:53:09;;;;;;;59.95;56.70;;;;;;;;;;5116420;27;20375;-56
2024/03/20 02:55:35;;;;;;;61.95;58.70;;;;;;;;;;5118054;27;20035;-54
2024/03/20 02:58:02;;;;;;;57.28;54.30;;;;;;;;;;5112497;27;20055;-55
2024/03/20 03:00:28;;;;;;;58.20;55.20;;;;;;;;;;5114941;27;20023;-52
2024/03/20 03:02:54;;;;;;;57.55;54.45;;;;;;;;;;5111750;27;20032;-55
2024/03/20 03:05:21;;;;;;;54.60;51.72;;;;;;;;;;5115038;27;20031;-55
2024/03/20 03:07:47;;;;;;;56.53;53.53;;;;;;;;;;5115635;27;20049;-52
2024/03/20 03:10:14;;;;;;;55.03;52.00;;;;;;;;;;5112228;27;20425;-56
2024/03/20 03:12:40;;;;;;;61.97;58.75;;;;;;;;;;5114195;27;20065;-54
2024/03/20 03:15:05;;;;;;;65.70;62.25;;;;;;;;;;5117326;27;20055;-54
2024/03/20 03:17:31;;;;;;;59.15;55.83;;;;;;;;;;5114986;27;20050;-55
2024/03/20 03:19:56;;;;;;;60.45;57.17;;;;;;;;;;5114801;27;20027;-56
2024/03/20 03:22:21;;;;;;;53.95;51.20;;;;;;;;;;5116485;27;20050;-54
2024/03/20 03:24:47;;;;;;;55.90;52.70;;;;;;;;;;5115132;27;20777;-55
2024/03/20 03:27:12;;;;;;;62.22;59.00;;;;;;;;;;5114681;27;20042;-55
2024/03/20 03:29:37;;;;;;;56.60;53.60;;;;;;;;;;5111636;27;20035;-60
2024/03/20 03:32:03;;;;;;;53.53;50.75;;;;;;;;;;5112139;27;20043;-60
2024/03/20 03:34:29;;;;;;;52.72;50.00;;;;;;;;;;5110694;27;20423;-60
2024/03/20 03:36:54;;;;;;;53.15;50.28;;;;;;;;;;5113049;27;20043;-60
2024/03/20 03:39:19;;;;;;;53.65;50.10;;;;;;;;;;5114059;27;20102;-60
2024/03/20 03:41:45;;;;;;;55.17;52.17;;;;;;;;;;5115584;27;20126;-60
2024/03/20 03:44:11;;;;;;;52.33;49.58;;;;;;;;;;5115552;27;20119;-60
2024/03/20 03:46:36;;;;;;;52.47;49.75;;;;;;;;;;5113414;27;20072;-60
2024/03/20 03:49:03;;;;;;;51.15;48.47;;;;;;;;;;5114533;27;20042;-60
2024/03/20 03:51:29;;;;;;;55.78;52.75;;;;;;;;;;5111753;27;20054;-60
2024/03/20 03:53:54;;;;;;;56.08;53.08;;;;;;;;;;5115088;28;20533;-60
2024/03/20 03:56:20;;;;;;;57.67;54.63;;;;;;;;;;5115915;28;20475;-61
2024/03/20 03:58:45;;;;;;;52.33;49.60;;;;;;;;;;5113339;28;20372;-60
2024/03/20 04:01:10;;;;;;;49.30;46.70;;;;;;;;;;5114379;28;20038;-60
2024/03/20 04:03:36;;;;;;;52.63;49.85;;;;;;;;;;5113066;28;20080;-60
2024/03/20 04:06:01;;;;;;;49.25;46.70;;;;;;;;;;5094525;28;20477;-61
2024/03/20 04:08:27;;;;;;;51.42;48.78;;;;;;;;;;5112628;28;20035;-61
2024/03/20 04:10:52;;;;;;;49.40;46.88;;;;;;;;;;5110505;28;20036;-61
2024/03/20 04:13:18;;;;;;;47.17;44.67;;;;;;;;;;5110052;28;20035;-61
2024/03/20 04:15:45;;;;;;;51.13;48.40;;;;;;;;;;5114093;27;20063;-62
2024/03/20 04:18:10;;;;;;;47.35;44.90;;;;;;;;;;5112463;27;20032;-61
2024/03/20 04:20:35;;;;;;;47.58;45.00;;;;;;;;;;5100437;27;20045;-61
2024/03/20 04:23:02;;;;;;;46.92;44.47;;;;;;;;;;5117155;27;20270;-61
2024/03/20 04:25:28;;;;;;;53.85;51.10;;;;;;;;;;5117382;27;20032;-60
2024/03/20 04:27:55;;;;;;;46.60;44.15;;;;;;;;;;5115690;27;20094;-60
2024/03/20 04:30:20;;;;;;;45.67;43.25;;;;;;;;;;5117607;27;20134;-60
2024/03/20 04:32:47;;;;;;;49.00;46.38;;;;;;;;;;5115131;27;20710;-60
2024/03/20 04:35:13;;;;;;;50.25;47.63;;;;;;;;;;5116739;27;20564;-60
2024/03/20 04:37:39;;;;;;;49.65;46.90;;;;;;;;;;5103950;27;20464;-61
2024/03/20 04:40:06;;;;;;;49.08;46.38;;;;;;;;;;5116592;27;20077;-61
2024/03/20 04:42:32;;;;;;;45.47;42.83;;;;;;;;;;5117703;27;20127;-60
2024/03/20 04:44:57;;;;;;;52.65;49.47;;;;;;;;;;5115531;27;20114;-61
2024/03/20 04:47:22;;;;;;;50.63;47.53;;;;;;;;;;5116577;27;20032;-61
2024/03/20 04:49:48;;;;;;;44.90;42.58;;;;;;;;;;5096625;27;20028;-60
2024/03/20 04:52:13;;;;;;;43.45;41.15;;;;;;;;;;5117536;27;20035;-61
2024/03/20 04:54:38;;;;;;;45.83;43.22;;;;;;;;;;5115617;27;20110;-60
2024/03/20 04:57:04;;;;;;;43.92;41.55;;;;;;;;;;5115687;27;20042;-60
2024/03/20 04:59:29;;;;;;;43.50;41.00;;;;;;;;;;5116364;27;20061;-60
2024/03/20 05:01:55;;;;;;;42.15;39.85;;;;;;;;;;5116852;27;20019;-61
2024/03/20 05:04:20;;;;;;;44.35;42.05;;;;;;;;;;5115323;27;20039;-60
2024/03/20 05:06:45;;;;;;;43.25;40.85;;;;;;;;;;5116453;27;20031;-60
2024/03/20 05:09:11;;;;;;;41.58;39.33;;;;;;;;;;5116933;27;20106;-60
2024/03/20 05:11:36;;;;;;;46.20;43.72;;;;;;;;;;5115384;27;20112;-61
2024/03/20 05:14:02;;;;;;;45.17;42.78;;;;;;;;;;5114777;27;20522;-60
2024/03/20 05:16:27;;;;;;;43.92;41.65;;;;;;;;;;5112908;27;20042;-60
2024/03/20 05:18:53;;;;;;;42.72;40.50;;;;;;;;;;5114818;27;20031;-60
2024/03/20 05:21:19;;;;;;;43.25;41.03;;;;;;;;;;5113852;27;21181;-60
2024/03/20 05:23:44;;;;;;;44.58;42.25;;;;;;;;;;5114778;27;20043;-60
2024/03/20 05:26:09;;;;;;;45.75;43.28;;;;;;;;;;5113850;27;20046;-60
2024/03/20 05:28:35;;;;;;;48.92;46.38;;;;;;;;;;5110937;27;20078;-59
2024/03/20 05:31:00;;;;;;;49.80;47.15;;;;;;;;;;5113561;27;20027;-59
2024/03/20 05:33:25;;;;;;;47.45;44.92;;;;;;;;;;5113722;27;20062;-59
2024/03/20 05:35:50;;;;;;;54.85;51.80;;;;;;;;;;5114246;27;20050;-60
2024/03/20 05:38:16;;;;;;;51.45;48.60;;;;;;;;;;5111957;27;20036;-60
2024/03/20 05:40:41;;;;;;;45.25;42.65;;;;;;;;;;5116180;27;20128;-59
2024/03/20 05:43:07;;;;;;;48.78;45.92;;;;;;;;;;5113048;27;20719;-60
2024/03/20 05:45:33;;;;;;;48.40;45.85;;;;;;;;;;5116985;27;20061;-60
2024/03/20 05:47:58;;;;;;;52.90;50.10;;;;;;;;;;5115581;27;20039;-60
2024/03/20 05:50:23;;;;;;;51.80;48.90;;;;;;;;;;5118774;27;20027;-59
2024/03/20 05:52:49;;;;;;;49.78;47.08;;;;;;;;;;5116659;27;20059;-60
2024/03/20 05:55:15;;;;;;;55.92;53.03;;;;;;;;;;5096157;27;20108;-60
2024/03/20 05:57:40;;;;;;;53.60;50.83;;;;;;;;;;5100345;27;20040;-60
2024/03/20 06:00:14;;;;;;;60.53;57.35;;;;;;;;;;5116247;27;20031;-59
2024/03/20 06:02:40;;;;;;;50.67;47.78;;;;;;;;;;5116350;27;20046;-59
2024/03/20 06:05:06;;;;;;;51.58;48.78;;;;;;;;;;5117753;27;20058;-60
2024/03/20 06:07:31;;;;;;;43.75;41.47;;;;;;;;;;5115262;27;20062;-60
2024/03/20 06:09:57;;;;;;;43.13;40.85;;;;;;;;;;5100726;27;20062;-59
2024/03/20 06:12:22;;;;;;;43.03;40.63;;;;;;;;;;5112715;27;20044;-59
2024/03/20 06:14:47;;;;;;;44.15;41.42;;;;;;;;;;5114596;27;20044;-59
2024/03/20 06:17:15;;;;;;;43.97;41.65;;;;;;;;;;5111964;27;20035;-59
2024/03/20 06:19:40;;;;;;;44.85;42.47;;;;;;;;;;5113122;27;20027;-59
2024/03/20 06:22:06;;;;;;;44.90;41.80;;;;;;;;;;5114049;27;20018;-59
2024/03/20 06:24:31;;;;;;;50.72;47.92;;;;;;;;;;5113370;27;20085;-59
2024/03/20 06:26:56;;;;;;;45.45;43.03;;;;;;;;;;5116575;27;20039;-59
2024/03/20 06:29:22;;;;;;;50.58;47.90;;;;;;;;;;5115362;27;20054;-58
2024/03/20 06:31:47;;;;;;;49.72;47.03;;;;;;;;;;5116897;27;20042;-58
2024/03/20 06:34:13;;;;;;;50.08;47.42;;;;;;;;;;5115031;27;20039;-58
2024/03/20 06:36:39;;;;;;;57.17;54.08;;;;;;;;;;5096491;27;20045;-58
2024/03/20 06:39:08;;;;;;;61.08;57.88;;;;;;;;;;5113724;27;20653;-58
2024/03/20 06:41:33;;;;;;;62.53;59.33;;;;;;;;;;5116317;27;20027;-59
2024/03/20 06:44:00;;;;;;;59.00;56.00;;;;;;;;;;5096409;28;20036;-58
2024/03/20 06:46:26;;;;;;;72.03;68.22;;;;;;;;;;5113301;27;20036;-58
2024/03/20 06:48:52;;;;;;;74.75;70.88;;;;;;;;;;5114778;27;20053;-59
2024/03/20 06:51:20;;;;;;;75.97;72.05;;;;;;;;;;5111897;27;20027;-59
2024/03/20 06:53:46;;;;;;;79.78;75.70;;;;;;;;;;5113381;27;20582;-58
2024/03/20 06:56:11;;;;;;;79.57;75.50;;;;;;;;;;5114669;27;20031;-54
2024/03/20 06:58:37;;;;;;;79.63;75.55;;;;;;;;;;5112150;27;20031;-55
2024/03/20 07:01:02;;;;;;;83.03;78.80;;;;;;;;;;5111754;27;20031;-53
2024/03/20 07:03:28;;;;;;;83.05;78.70;;;;;;;;;;5111772;27;20043;-55
2024/03/20 07:05:56;;;;;;;87.82;83.38;;;;;;;;;;5116082;27;20042;-56
2024/03/20 07:08:24;;;;;;;78.10;74.18;;;;;;;;;;5113174;27;20669;-55
2024/03/20 07:10:50;;;;;;;74.38;70.35;;;;;;;;;;5112760;27;20062;-54
2024/03/20 07:13:16;;;;;;;77.93;73.85;;;;;;;;;;5115439;27;20480;-53
2024/03/20 07:15:43;;;;;;;73.40;69.28;;;;;;;;;;5113511;27;20353;-55
2024/03/20 07:18:08;;;;;;;74.18;70.22;;;;;;;;;;5113108;27;20023;-53
2024/03/20 07:20:34;;;;;;;67.97;64.43;;;;;;;;;;5114163;27;20034;-56
2024/03/20 07:23:01;;;;;;;70.68;67.07;;;;;;;;;;5112087;27;20791;-56
2024/03/20 07:25:27;;;;;;;55.78;52.90;;;;;;;;;;5113751;27;20019;-55
2024/03/20 07:27:55;;;;;;;46.35;43.90;;;;;;;;;;5112496;27;20042;-56
2024/03/20 07:30:21;;;;;;;44.40;42.00;;;;;;;;;;5110665;27;20039;-56
2024/03/20 07:32:47;;;;;;;56.38;53.35;;;;;;;;;;5110315;27;20035;-56
2024/03/20 07:35:12;;;;;;;52.22;49.33;;;;;;;;;;5112502;27;20049;-56
2024/03/20 07:37:38;;;;;;;50.95;48.03;;;;;;;;;;5111533;27;20473;-55
2024/03/20 07:40:05;;;;;;;44.53;41.75;;;;;;;;;;5109301;27;20092;-57
2024/03/20 07:42:30;;;;;;;43.25;40.75;;;;;;;;;;5114700;27;20054;-57
2024/03/20 07:44:56;;;;;;;36.90;34.85;;;;;;;;;;5113060;27;20730;-56
2024/03/20 07:47:21;;;;;;;37.58;35.55;;;;;;;;;;5109581;27;20092;-55
2024/03/20 07:49:47;;;;;;;40.95;38.60;;;;;;;;;;5111872;27;20160;-56
2024/03/20 07:52:12;;;;;;;36.67;34.78;;;;;;;;;;5112393;27;20404;-57
2024/03/20 07:54:38;;;;;;;48.67;46.08;;;;;;;;;;5113440;27;20071;-55
2024/03/20 07:57:03;;;;;;;35.15;33.25;;;;;;;;;;5113383;28;20034;-56
2024/03/20 07:59:29;;;;;;;32.90;31.13;;;;;;;;;;5113985;28;20039;-57
2024/03/20 08:01:54;;;;;;;33.00;31.17;;;;;;;;;;5111525;28;20031;-55
2024/03/20 08:04:20;;;;;;;30.80;29.10;;;;;;;;;;5113863;28;20028;-56
2024/03/20 08:06:46;;;;;;;30.00;28.20;;;;;;;;;;5093676;28;20027;-56
2024/03/20 08:09:11;;;;;;;31.65;29.85;;;;;;;;;;5113129;28;20171;-55
2024/03/20 08:11:37;;;;;;;34.30;32.47;;;;;;;;;;5095248;28;20020;-57
2024/03/20 08:14:07;;;;;;;32.45;30.35;;;;;;;;;;5112127;28;20035;-57
2024/03/20 08:16:37;;;;;;;31.48;29.65;;;;;;;;;;5111597;28;20117;-56
2024/03/20 08:19:05;;;;;;;40.38;38.28;;;;;;;;;;5112716;28;20047;-57
2024/03/20 08:21:30;;;;;;;40.78;38.63;;;;;;;;;;5113656;28;20215;-56
2024/03/20 08:23:56;;;;;;;48.30;45.25;;;;;;;;;;5113617;28;20531;-57
2024/03/20 08:26:21;;;;;;;46.63;44.17;;;;;;;;;;5111793;28;20449;-57
2024/03/20 08:28:47;;;;;;;63.40;59.75;;;;;;;;;;5096914;28;20119;-57
2024/03/20 08:31:12;;;;;;;76.35;72.45;;;;;;;;;;5112351;28;20108;-57
2024/03/20 08:33:38;;;;;;;55.80;52.50;;;;;;;;;;5113198;28;20046;-56
2024/03/20 08:36:08;;;;;;;59.42;56.13;;;;;;;;;;5113928;28;20047;-56
2024/03/20 08:38:33;;;;;;;58.10;54.92;;;;;;;;;;5114262;28;20023;-57
2024/03/20 08:40:59;;;;;;;59.58;56.50;;;;;;;;;;5111987;28;20104;-55
2024/03/20 08:43:24;;;;;;;59.72;56.63;;;;;;;;;;5116236;28;20040;-56
2024/03/20 08:45:52;;;;;;;58.75;55.70;;;;;;;;;;5113869;28;20031;-57
2024/03/20 08:48:18;;;;;;;56.83;53.92;;;;;;;;;;5113062;28;20046;-57
2024/03/20 08:50:43;;;;;;;62.95;59.55;;;;;;;;;;5114813;28;20027;-56
2024/03/20 08:53:11;;;;;;;49.38;46.80;;;;;;;;;;5115047;28;20487;-55
2024/03/20 08:55:37;;;;;;;61.50;58.20;;;;;;;;;;5112223;28;20036;-57
2024/03/20 08:58:03;;;;;;;66.22;62.83;;;;;;;;;;5111755;28;20031;-57
2024/03/20 09:00:29;;;;;;;66.10;62.53;;;;;;;;;;5109737;27;20024;-57
2024/03/20 09:02:54;;;;;;;71.45;67.70;;;;;;;;;;5114704;27;20038;-57
2024/03/20 09:05:21;;;;;;;66.95;63.47;;;;;;;;;;5095242;27;20074;-57
2024/03/20 09:07:46;;;;;;;66.05;62.53;;;;;;;;;;5114520;27;20042;-57
2024/03/20 09:10:12;;;;;;;70.45;66.85;;;;;;;;;;5114655;27;20027;-57
2024/03/20 09:12:37;;;;;;;57.13;53.75;;;;;;;;;;5115341;27;20560;-60
2024/03/20 09:15:05;;;;;;;57.70;54.80;;;;;;;;;;5113570;27;20707;-60
2024/03/20 09:17:31;;;;;;;78.32;74.35;;;;;;;;;;5113884;27;20095;-59
2024/03/20 09:19:56;;;;;;;79.95;75.85;;;;;;;;;;5116524;27;20043;-60
2024/03/20 09:22:21;;;;;;;58.00;54.80;;;;;;;;;;5114697;27;20035;-60
2024/03/20 09:24:47;;;;;;;91.60;86.93;;;;;;;;;;5114093;27;20096;-60
2024/03/20 09:27:12;;;;;;;62.03;58.83;;;;;;;;;;5115547;27;20035;-60
2024/03/20 09:29:38;;;;;;;61.30;58.20;;;;;;;;;;5117220;27;20146;-60
2024/03/20 09:32:04;;;;;;;67.40;63.90;;;;;;;;;;5098515;27;20473;-60
2024/03/20 09:34:30;;;;;;;57.85;54.85;;;;;;;;;;5116150;27;20032;-60
2024/03/20 09:36:56;;;;;;;55.25;52.38;;;;;;;;;;5095586;27;20644;-60
2024/03/20 09:39:21;;;;;;;76.63;72.70;;;;;;;;;;5112057;27;20032;-60
2024/03/20 09:41:47;;;;;;;106.28;100.47;;;;;;;;;;5115335;27;20035;-60
2024/03/20 09:44:13;;;;;;;95.53;90.35;;;;;;;;;;5115597;27;20054;-60
2024/03/20 09:46:38;;;;;;;82.40;78.22;;;;;;;;;;5116091;27;20035;-60
2024/03/20 09:49:04;;;;;;;74.43;70.70;;;;;;;;;;5113321;27;20030;-61
2024/03/20 09:51:29;;;;;;;42.25;39.95;;;;;;;;;;5112004;27;20028;-60
2024/03/20 09:53:55;;;;;;;48.08;45.58;;;;;;;;;;5114760;27;20049;-60
2024/03/20 09:56:21;;;;;;;59.72;56.10;;;;;;;;;;5114396;27;20040;-61
2024/03/20 09:58:48;;;;;;;37.42;35.22;;;;;;;;;;5115653;27;20058;-60
2024/03/20 10:01:20;;;;;;;76.82;72.88;;;;;;;;;;5114072;27;20058;-60
2024/03/20 10:03:48;;;;;;;59.95;56.75;;;;;;;;;;5099739;27;20387;-61
2024/03/20 10:06:14;;;;;;;57.35;54.28;;;;;;;;;;5119814;27;20069;-60
2024/03/20 10:08:39;;;;;;;35.65;33.65;;;;;;;;;;5117453;27;20055;-61
2024/03/20 10:11:07;;;;;;;34.15;32.15;;;;;;;;;;5117041;27;20040;-61
2024/03/20 10:13:33;;;;;;;32.17;30.48;;;;;;;;;;5119158;27;20122;-60
2024/03/20 10:16:16;;;;;;;54.90;52.05;;;;;;;;;;5117875;27;20114;-60
2024/03/20 10:18:43;;;;;;;33.72;31.92;;;;;;;;;;5117490;27;20108;-60
2024/03/20 10:21:10;;;;;;;33.25;31.25;;;;;;;;;;5118309;27;20034;-60
2024/03/20 10:23:40;;;;;;;51.78;49.00;;;;;;;;;;5115241;27;20037;-60
2024/03/20 10:26:06;;;;;;;34.07;32.20;;;;;;;;;;5095814;27;20046;-60
2024/03/20 10:28:32;;;;;;;33.00;31.23;;;;;;;;;;5110959;27;20031;-60
2024/03/20 10:31:03;;;;;;;37.58;35.58;;;;;;;;;;5113769;27;20079;-60
2024/03/20 10:33:29;;;;;;;34.63;32.80;;;;;;;;;;5112493;27;20027;-60
2024/03/20 10:35:55;;;;;;;38.60;36.42;;;;;;;;;;5118001;27;20095;-60
2024/03/20 10:38:22;;;;;;;33.75;31.65;;;;;;;;;;5114731;27;20407;-60
2024/03/20 10:40:49;;;;;;;33.20;31.20;;;;;;;;;;5097456;27;20043;-60
2024/03/20 10:43:19;;;;;;;34.47;32.58;;;;;;;;;;5115073;27;20031;-60
2024/03/20 10:45:45;;;;;;;40.67;38.13;;;;;;;;;;5114542;27;20016;-60
2024/03/20 10:48:14;;;;;;;143.10;135.75;;;;;;;;;;5115244;27;20067;-60
2024/03/20 10:50:41;;;;;;;118.03;111.90;;;;;;;;;;5118323;27;20530;-60
2024/03/20 10:53:07;;;;;;;74.63;70.82;;;;;;;;;;5114917;27;20039;-60
2024/03/20 10:55:32;;;;;;;184.55;175.20;;;;;;;;;;5095589;27;20042;-60
2024/03/20 10:57:58;;;;;;;152.43;144.80;;;;;;;;;;5094152;27;20028;-60
2024/03/20 11:00:24;;;;;;;157.40;149.52;;;;;;;;;;5095421;27;20027;-60
2024/03/20 11:02:50;;;;;;;97.53;92.57;;;;;;;;;;5114368;27;20096;-60
2024/03/20 11:05:33;;;;;;;215.90;205.30;;;;;;;;;;5115491;27;20036;-60
2024/03/20 11:07:59;;;;;;;203.00;192.95;;;;;;;;;;5114336;27;20346;-60
2024/03/20 11:10:28;;;;;;;184.10;175.02;;;;;;;;;;5114278;27;20034;-60
2024/03/20 11:12:55;;;;;;;251.00;238.68;;;;;;;;;;5113567;27;20115;-60
2024/03/20 11:15:25;;;;;;;139.85;132.90;;;;;;;;;;5111266;27;20031;-64
2024/03/20 11:17:52;;;;;;;260.20;247.38;;;;;;;;;;5114056;27;20051;-60
2024/03/20 11:20:33;;;;;;;143.13;135.93;;;;;;;;;;5112124;27;20039;-60
2024/03/20 11:23:05;;;;;;;119.38;113.43;;;;;;;;;;5093609;28;20469;-60
2024/03/20 11:25:34;;;;;;;78.55;74.43;;;;;;;;;;5094481;27;20027;-60
2024/03/20 11:28:00;;;;;;;140.70;133.50;;;;;;;;;;5115329;27;20039;-60
2024/03/20 11:30:26;;;;;;;125.72;119.40;;;;;;;;;;5112301;27;20584;-58
2024/03/20 11:32:51;;;;;;;119.80;113.82;;;;;;;;;;5112180;27;20107;-57
2024/03/20 11:35:18;;;;;;;94.50;89.78;;;;;;;;;;5114568;27;20023;-58
2024/03/20 11:37:43;;;;;;;121.93;115.75;;;;;;;;;;5115393;27;20028;-59
2024/03/20 11:40:13;;;;;;;82.90;78.68;;;;;;;;;;5112589;27;20516;-58
2024/03/20 11:42:38;;;;;;;59.80;56.70;;;;;;;;;;5115542;27;20027;-58
2024/03/20 11:45:12;;;;;;;63.50;60.28;;;;;;;;;;5110171;27;20027;-56
2024/03/20 11:47:38;;;;;;;50.40;47.78;;;;;;;;;;5109319;27;20139;-56
2024/03/20 11:50:05;;;;;;;72.10;68.32;;;;;;;;;;5114206;28;20481;-56
2024/03/20 11:52:31;;;;;;;63.22;60.00;;;;;;;;;;5109723;27;20031;-58
2024/03/20 11:54:58;;;;;;;94.28;89.55;;;;;;;;;;5112073;27;20142;-59
2024/03/20 11:57:24;;;;;;;87.28;82.68;;;;;;;;;;5112654;28;20039;-59
2024/03/20 11:59:50;;;;;;;102.55;97.43;;;;;;;;;;5114089;28;20131;-58
2024/03/20 12:02:19;;;;;;;83.07;78.80;;;;;;;;;;5113592;28;20031;-59
2024/03/20 12:04:46;;;;;;;87.68;83.10;;;;;;;;;;5114478;28;20089;-58
2024/03/20 12:07:25;;;;;;;66.80;63.42;;;;;;;;;;5114699;28;20035;-59
2024/03/20 12:09:50;;;;;;;69.68;65.70;;;;;;;;;;5117081;28;20147;-59
2024/03/20 12:12:16;;;;;;;206.07;195.95;;;;;;;;;;5113094;28;20476;-58
2024/03/20 12:14:43;;;;;;;194.07;184.23;;;;;;;;;;5116149;28;20043;-58
2024/03/20 12:17:11;;;;;;;85.43;81.18;;;;;;;;;;5113457;28;20066;-59
2024/03/20 12:19:36;;;;;;;70.82;67.28;;;;;;;;;;5114023;28;20042;-56
2024/03/20 12:22:04;;;;;;;68.30;64.88;;;;;;;;;;5114644;28;20031;-55
2024/03/20 12:24:30;;;;;;;64.25;60.92;;;;;;;;;;5111575;28;20100;-55
2024/03/20 12:26:55;;;;;;;92.47;87.93;;;;;;;;;;5112755;28;20664;-55
2024/03/20 12:29:21;;;;;;;86.05;81.78;;;;;;;;;;5110618;28;20020;-56
2024/03/20 12:31:46;;;;;;;84.90;80.55;;;;;;;;;;5095084;28;20032;-56
2024/03/20 12:34:12;;;;;;;94.68;89.93;;;;;;;;;;5094257;28;20043;-57
2024/03/20 12:36:38;;;;;;;119.18;113.20;;;;;;;;;;5077150;27;20066;-56
2024/03/20 12:39:05;;;;;;;69.32;65.88;;;;;;;;;;5118279;27;20045;-56
2024/03/20 12:41:30;;;;;;;68.57;65.18;;;;;;;;;;5108725;27;20027;-56
2024/03/20 12:43:57;;;;;;;74.38;70.65;;;;;;;;;;5114652;27;20032;-55
2024/03/20 12:46:22;;;;;;;58.75;55.78;;;;;;;;;;5114964;27;20377;-56
2024/03/20 12:48:47;;;;;;;54.53;51.78;;;;;;;;;;5118142;27;20047;-55
2024/03/20 12:51:17;;;;;;;60.95;57.88;;;;;;;;;;5116022;27;20046;-56
2024/03/20 12:53:43;;;;;;;70.13;66.63;;;;;;;;;;5112973;27;20043;-56
2024/03/20 12:56:09;;;;;;;56.80;53.95;;;;;;;;;;5113527;27;20027;-57
2024/03/20 12:58:34;;;;;;;60.92;57.85;;;;;;;;;;5115434;27;20039;-56
2024/03/20 13:01:00;;;;;;;59.90;56.90;;;;;;;;;;5115490;27;20110;-57
2024/03/20 13:03:25;;;;;;;69.80;66.30;;;;;;;;;;5114878;27;20027;-54
2024/03/20 13:05:56;;;;;;;66.35;63.05;;;;;;;;;;5114054;27;20422;-56
2024/03/20 13:08:21;;;;;;;69.68;66.18;;;;;;;;;;5115256;27;20030;-58
2024/03/20 13:10:47;;;;;;;55.67;52.88;;;;;;;;;;5111431;27;20027;-57
2024/03/20 13:13:22;;;;;;;58.10;55.05;;;;;;;;;;5112195;27;20031;-56
2024/03/20 13:15:48;;;;;;;69.25;65.80;;;;;;;;;;5114643;27;20055;-56
2024/03/20 13:18:32;;;;;;;53.38;50.67;;;;;;;;;;5116610;27;20034;-56
2024/03/20 13:20:58;;;;;;;51.25;48.67;;;;;;;;;;5116251;27;20027;-56
2024/03/20 13:23:24;;;;;;;57.10;54.20;;;;;;;;;;5116621;27;20080;-56
2024/03/20 13:25:50;;;;;;;58.22;55.00;;;;;;;;;;5115607;27;20027;-56
2024/03/20 13:28:18;;;;;;;56.53;53.67;;;;;;;;;;5118863;27;20042;-56
2024/03/20 13:30:49;;;;;;;56.17;53.38;;;;;;;;;;5115180;27;20114;-56
2024/03/20 13:33:15;;;;;;;52.67;49.95;;;;;;;;;;5114095;27;20031;-56
2024/03/20 13:35:44;;;;;;;55.40;52.60;;;;;;;;;;5115013;27;20039;-56
2024/03/20 13:38:14;;;;;;;60.25;57.25;;;;;;;;;;5114685;27;20050;-56
2024/03/20 13:40:43;;;;;;;43.95;41.65;;;;;;;;;;5097322;27;20099;-56
2024/03/20 13:45:56;;;;;;;46.28;43.90;;;;;;;;;;5115582;27;20357;-56
2024/03/20 13:48:22;;;;;;;60.22;57.10;;;;;;;;;;5114654;27;20042;-56
2024/03/20 13:50:48;;;;;;;56.78;53.90;;;;;;;;;;5115078;27;20032;-56
2024/03/20 13:53:13;;;;;;;56.03;53.20;;;;;;;;;;5116115;27;20048;-56
2024/03/20 13:55:39;;;;;;;56.83;53.97;;;;;;;;;;5115101;27;20019;-56
2024/03/20 13:58:04;;;;;;;52.80;50.10;;;;;;;;;;5117793;27;20209;-56
2024/03/20 14:00:30;;;;;;;59.70;56.67;;;;;;;;;;5115488;27;20084;-56
2024/03/20 14:02:56;;;;;;;50.33;46.78;;;;;;;;;;5115118;27;20126;-55
2024/03/20 14:05:21;;;;;;;44.33;42.03;;;;;;;;;;5114847;27;20035;-56
2024/03/20 14:07:47;;;;;;;47.20;44.78;;;;;;;;;;5113549;27;20074;-56
2024/03/20 14:10:17;;;;;;;49.95;47.38;;;;;;;;;;5114783;27;20358;-56
2024/03/20 14:12:44;;;;;;;46.38;44.03;;;;;;;;;;5112573;27;20054;-56
2024/03/20 14:15:14;;;;;;;52.50;49.85;;;;;;;;;;5114835;27;20488;-56